Ana Sayfa
METAR-TAF:

METAR-TAF

Havaalanları :

Port Isabel-Cameron County Airport

Port Isabel, Teksas, Amerika Birleşik Devletleri

Enlem: 26-09-33N, Boylam: 097-20-15W, yükseklik: 5 m

Güncel hava durumu gözlemi

Rapor saat 06:53 UTC de 1 saat ve 1 dakika önce yapıldı.
Rüzgar güney/güneybatıdan 7 kt
Sıcaklık 17°C
Nem 82%
Basınç 1012 hPa
Görüş mesafesi: 16.1 km
Açık gökyüzü

METAR: KPIL 140653Z AUTO 20007KT 10SM CLR 17/14 A2989 RMK AO2 SLP121 T01670144

Saat: 01:54 (07:54 UTC)


TAF: eksik

4.000'den fazla havaalanı için hava durumu gözlemleri ve tahminleri (METAR ve TAF raporları).

Kullanılabilir istasyonlar harita üzerinde sarı ve kırmızı noktalarla gösterilir.

İstasyonun adını görmek için fareyi noktanın üzerinde gezdirin.

Sonrasında hava gözlem ve tahminlerini görmek için tıklayın.

Haritayı değiştirmek için: yaklaştırmak için siyah artı işaretli yeşil düğmeye ve uzaklaştırmak için de eksi işaretli düğmeye hızla tıklayın; bitişik haritalar için yeşil okları kullanın.


METAR-TAF: